sensor_id;sensor_type;location;lat;lon;timestamp;P1;P2;P0
34176;PMS7003;20450;49.074;9.158;2024-03-06T00:00:27;14.00;14.00;10.50
34176;PMS7003;20450;49.074;9.158;2024-03-06T00:02:54;10.50;10.50;8.75
34176;PMS7003;20450;49.074;9.158;2024-03-06T00:05:21;9.50;9.50;8.00
34176;PMS7003;20450;49.074;9.158;2024-03-06T00:07:51;16.25;13.75;9.00
34176;PMS7003;20450;49.074;9.158;2024-03-06T00:10:18;10.75;10.75;8.25
34176;PMS7003;20450;49.074;9.158;2024-03-06T00:12:45;12.25;11.00;10.00
34176;PMS7003;20450;49.074;9.158;2024-03-06T00:15:12;12.75;12.75;10.00
34176;PMS7003;20450;49.074;9.158;2024-03-06T00:17:39;13.00;11.50;7.75
34176;PMS7003;20450;49.074;9.158;2024-03-06T00:20:06;9.00;9.00;8.00
34176;PMS7003;20450;49.074;9.158;2024-03-06T00:22:34;10.75;10.25;8.00
34176;PMS7003;20450;49.074;9.158;2024-03-06T00:25:02;11.00;11.00;9.00
34176;PMS7003;20450;49.074;9.158;2024-03-06T00:27:30;13.50;10.50;8.50
34176;PMS7003;20450;49.074;9.158;2024-03-06T00:29:57;12.00;12.00;8.50
34176;PMS7003;20450;49.074;9.158;2024-03-06T00:32:24;8.00;8.00;7.75
34176;PMS7003;20450;49.074;9.158;2024-03-06T00:34:52;11.00;9.50;8.00
34176;PMS7003;20450;49.074;9.158;2024-03-06T00:37:19;7.50;7.00;6.00
34176;PMS7003;20450;49.074;9.158;2024-03-06T00:39:46;11.25;10.50;9.00
34176;PMS7003;20450;49.074;9.158;2024-03-06T00:42:14;10.00;10.00;8.00
34176;PMS7003;20450;49.074;9.158;2024-03-06T00:44:42;6.75;6.75;5.00
34176;PMS7003;20450;49.074;9.158;2024-03-06T00:47:09;11.50;10.00;6.50
34176;PMS7003;20450;49.074;9.158;2024-03-06T00:49:36;10.25;9.00;7.75
34176;PMS7003;20450;49.074;9.158;2024-03-06T00:52:03;9.00;6.00;4.00
34176;PMS7003;20450;49.074;9.158;2024-03-06T00:54:30;9.00;8.25;7.00
34176;PMS7003;20450;49.074;9.158;2024-03-06T00:56:57;10.00;9.25;7.75
34176;PMS7003;20450;49.074;9.158;2024-03-06T00:59:26;9.75;9.50;7.75
34176;PMS7003;20450;49.074;9.158;2024-03-06T01:01:53;6.00;5.50;5.25
34176;PMS7003;20450;49.074;9.158;2024-03-06T01:04:19;9.50;7.25;6.00
34176;PMS7003;20450;49.074;9.158;2024-03-06T01:06:46;9.50;9.00;7.00
34176;PMS7003;20450;49.074;9.158;2024-03-06T01:09:13;9.25;8.25;6.00
34176;PMS7003;20450;49.074;9.158;2024-03-06T01:11:40;11.50;10.25;7.75
34176;PMS7003;20450;49.074;9.158;2024-03-06T01:14:07;14.50;13.75;10.75
34176;PMS7003;20450;49.074;9.158;2024-03-06T01:16:36;10.00;10.00;9.00
34176;PMS7003;20450;49.074;9.158;2024-03-06T01:19:03;14.50;10.25;8.00
34176;PMS7003;20450;49.074;9.158;2024-03-06T01:21:30;8.25;8.25;7.25
34176;PMS7003;20450;49.074;9.158;2024-03-06T01:23:57;13.75;12.00;10.00
34176;PMS7003;20450;49.074;9.158;2024-03-06T01:26:24;14.00;11.00;8.50
34176;PMS7003;20450;49.074;9.158;2024-03-06T01:28:51;13.50;13.50;10.50
34176;PMS7003;20450;49.074;9.158;2024-03-06T01:31:18;9.00;9.00;6.00
34176;PMS7003;20450;49.074;9.158;2024-03-06T01:33:46;17.00;16.00;12.25
34176;PMS7003;20450;49.074;9.158;2024-03-06T01:36:13;12.75;12.75;10.75
34176;PMS7003;20450;49.074;9.158;2024-03-06T01:38:40;8.00;8.00;8.00
34176;PMS7003;20450;49.074;9.158;2024-03-06T01:41:07;13.25;13.00;10.50
34176;PMS7003;20450;49.074;9.158;2024-03-06T01:43:36;9.25;7.50;6.00
34176;PMS7003;20450;49.074;9.158;2024-03-06T01:46:04;10.00;9.00;8.00
34176;PMS7003;20450;49.074;9.158;2024-03-06T01:48:31;11.75;11.75;8.75
34176;PMS7003;20450;49.074;9.158;2024-03-06T01:51:01;12.75;12.00;8.75
34176;PMS7003;20450;49.074;9.158;2024-03-06T01:53:31;8.00;6.50;5.75
34176;PMS7003;20450;49.074;9.158;2024-03-06T01:56:01;13.25;11.50;9.00
34176;PMS7003;20450;49.074;9.158;2024-03-06T01:58:30;14.75;14.75;12.00
34176;PMS7003;20450;49.074;9.158;2024-03-06T02:01:01;13.50;13.00;10.25
34176;PMS7003;20450;49.074;9.158;2024-03-06T02:03:29;9.75;9.75;6.75
34176;PMS7003;20450;49.074;9.158;2024-03-06T02:06:00;13.25;13.25;10.25
34176;PMS7003;20450;49.074;9.158;2024-03-06T02:08:29;15.75;14.75;11.00
34176;PMS7003;20450;49.074;9.158;2024-03-06T02:10:58;13.75;13.75;10.75
34176;PMS7003;20450;49.074;9.158;2024-03-06T02:13:25;17.50;16.75;13.50
34176;PMS7003;20450;49.074;9.158;2024-03-06T02:15:52;15.00;15.00;13.00
34176;PMS7003;20450;49.074;9.158;2024-03-06T02:18:19;14.25;14.25;9.75
34176;PMS7003;20450;49.074;9.158;2024-03-06T02:20:48;17.75;16.00;12.50
34176;PMS7003;20450;49.074;9.158;2024-03-06T02:23:15;11.25;11.25;8.00
34176;PMS7003;20450;49.074;9.158;2024-03-06T02:25:43;15.75;14.75;11.50
34176;PMS7003;20450;49.074;9.158;2024-03-06T02:28:11;15.75;15.00;10.25
34176;PMS7003;20450;49.074;9.158;2024-03-06T02:30:38;17.00;15.25;12.50
34176;PMS7003;20450;49.074;9.158;2024-03-06T02:33:05;15.25;15.25;12.00
34176;PMS7003;20450;49.074;9.158;2024-03-06T02:35:32;16.50;15.00;12.75
34176;PMS7003;20450;49.074;9.158;2024-03-06T02:38:01;13.75;13.75;12.00
34176;PMS7003;20450;49.074;9.158;2024-03-06T02:40:30;16.00;13.75;11.25
34176;PMS7003;20450;49.074;9.158;2024-03-06T02:42:57;11.75;11.50;9.50
34176;PMS7003;20450;49.074;9.158;2024-03-06T02:45:24;11.00;10.00;8.75
34176;PMS7003;20450;49.074;9.158;2024-03-06T02:47:51;13.25;11.75;9.75
34176;PMS7003;20450;49.074;9.158;2024-03-06T02:50:18;14.50;13.00;11.00
34176;PMS7003;20450;49.074;9.158;2024-03-06T02:52:45;16.50;16.25;12.50
34176;PMS7003;20450;49.074;9.158;2024-03-06T02:55:14;14.50;13.75;9.25
34176;PMS7003;20450;49.074;9.158;2024-03-06T02:57:41;16.50;13.75;11.00
34176;PMS7003;20450;49.074;9.158;2024-03-06T03:00:09;14.00;13.50;10.00
34176;PMS7003;20450;49.074;9.158;2024-03-06T03:02:38;11.00;10.75;9.00
34176;PMS7003;20450;49.074;9.158;2024-03-06T03:05:05;11.75;11.75;10.00
34176;PMS7003;20450;49.074;9.158;2024-03-06T03:07:33;9.25;9.00;7.75
34176;PMS7003;20450;49.074;9.158;2024-03-06T03:10:01;10.50;8.75;7.00
34176;PMS7003;20450;49.074;9.158;2024-03-06T03:12:29;15.25;12.50;11.00
34176;PMS7003;20450;49.074;9.158;2024-03-06T03:14:56;13.00;12.00;10.75
34176;PMS7003;20450;49.074;9.158;2024-03-06T03:17:23;14.00;14.00;11.00
34176;PMS7003;20450;49.074;9.158;2024-03-06T03:19:50;13.50;13.50;11.00
34176;PMS7003;20450;49.074;9.158;2024-03-06T03:22:17;15.00;13.25;10.75
34176;PMS7003;20450;49.074;9.158;2024-03-06T03:24:44;15.25;12.50;10.00
34176;PMS7003;20450;49.074;9.158;2024-03-06T03:27:11;14.25;13.25;12.00
34176;PMS7003;20450;49.074;9.158;2024-03-06T03:29:40;12.75;11.00;9.00
34176;PMS7003;20450;49.074;9.158;2024-03-06T03:32:06;10.25;10.25;9.25
34176;PMS7003;20450;49.074;9.158;2024-03-06T03:34:34;13.25;12.25;10.50
34176;PMS7003;20450;49.074;9.158;2024-03-06T03:37:02;10.75;10.75;9.75
34176;PMS7003;20450;49.074;9.158;2024-03-06T03:39:29;19.50;16.75;12.50
34176;PMS7003;20450;49.074;9.158;2024-03-06T03:41:57;14.75;13.00;11.25
34176;PMS7003;20450;49.074;9.158;2024-03-06T03:44:25;11.25;11.25;9.25
34176;PMS7003;20450;49.074;9.158;2024-03-06T03:46:54;11.00;11.00;10.25
34176;PMS7003;20450;49.074;9.158;2024-03-06T03:49:21;12.50;9.50;7.50
34176;PMS7003;20450;49.074;9.158;2024-03-06T03:51:48;14.25;14.25;11.75
34176;PMS7003;20450;49.074;9.158;2024-03-06T03:54:15;13.75;13.75;11.00
34176;PMS7003;20450;49.074;9.158;2024-03-06T03:56:42;11.75;9.75;7.00
34176;PMS7003;20450;49.074;9.158;2024-03-06T03:59:09;14.00;14.00;12.00
34176;PMS7003;20450;49.074;9.158;2024-03-06T04:01:37;9.25;9.25;7.75
34176;PMS7003;20450;49.074;9.158;2024-03-06T04:04:08;14.75;14.75;11.00
34176;PMS7003;20450;49.074;9.158;2024-03-06T04:06:35;15.50;13.00;11.25
34176;PMS7003;20450;49.074;9.158;2024-03-06T04:09:03;19.75;16.75;13.00
34176;PMS7003;20450;49.074;9.158;2024-03-06T04:11:30;13.00;13.00;10.75
34176;PMS7003;20450;49.074;9.158;2024-03-06T04:13:57;18.00;16.75;13.75
34176;PMS7003;20450;49.074;9.158;2024-03-06T04:16:24;13.25;12.25;11.50
34176;PMS7003;20450;49.074;9.158;2024-03-06T04:18:51;15.50;15.00;11.75
34176;PMS7003;20450;49.074;9.158;2024-03-06T04:21:21;17.50;14.75;12.00
34176;PMS7003;20450;49.074;9.158;2024-03-06T04:23:48;16.00;14.75;13.50
34176;PMS7003;20450;49.074;9.158;2024-03-06T04:26:15;15.50;14.25;11.50
34176;PMS7003;20450;49.074;9.158;2024-03-06T04:28:42;17.75;16.50;12.25
34176;PMS7003;20450;49.074;9.158;2024-03-06T04:31:09;17.25;16.25;12.75
34176;PMS7003;20450;49.074;9.158;2024-03-06T04:33:37;16.50;16.25;11.50
34176;PMS7003;20450;49.074;9.158;2024-03-06T04:36:04;15.50;14.25;11.00
34176;PMS7003;20450;49.074;9.158;2024-03-06T04:38:34;18.75;18.25;14.50
34176;PMS7003;20450;49.074;9.158;2024-03-06T04:41:01;15.50;14.00;11.50
34176;PMS7003;20450;49.074;9.158;2024-03-06T04:43:28;14.75;14.75;13.00
34176;PMS7003;20450;49.074;9.158;2024-03-06T04:45:55;18.25;18.25;14.00
34176;PMS7003;20450;49.074;9.158;2024-03-06T04:48:23;15.50;15.50;12.50
34176;PMS7003;20450;49.074;9.158;2024-03-06T04:50:50;14.75;14.75;12.50
34176;PMS7003;20450;49.074;9.158;2024-03-06T04:53:17;17.00;16.00;12.25
34176;PMS7003;20450;49.074;9.158;2024-03-06T04:55:46;16.25;14.25;11.25
34176;PMS7003;20450;49.074;9.158;2024-03-06T04:58:13;17.25;16.50;14.00
34176;PMS7003;20450;49.074;9.158;2024-03-06T05:00:40;19.25;17.00;13.00
34176;PMS7003;20450;49.074;9.158;2024-03-06T05:03:07;15.00;14.00;11.75
34176;PMS7003;20450;49.074;9.158;2024-03-06T05:05:52;20.75;17.25;13.00
34176;PMS7003;20450;49.074;9.158;2024-03-06T05:08:37;15.75;15.75;12.75
34176;PMS7003;20450;49.074;9.158;2024-03-06T05:11:23;15.50;15.50;12.25
34176;PMS7003;20450;49.074;9.158;2024-03-06T05:14:08;16.75;15.25;12.00
34176;PMS7003;20450;49.074;9.158;2024-03-06T05:16:53;17.75;17.00;11.25
34176;PMS7003;20450;49.074;9.158;2024-03-06T05:19:38;18.75;17.00;12.00
34176;PMS7003;20450;49.074;9.158;2024-03-06T05:22:33;14.75;13.50;12.00
34176;PMS7003;20450;49.074;9.158;2024-03-06T05:25:18;17.25;17.25;13.75
34176;PMS7003;20450;49.074;9.158;2024-03-06T05:28:02;19.25;16.00;13.25
34176;PMS7003;20450;49.074;9.158;2024-03-06T05:30:47;16.50;15.50;12.75
34176;PMS7003;20450;49.074;9.158;2024-03-06T05:33:35;15.00;15.00;11.50
34176;PMS7003;20450;49.074;9.158;2024-03-06T05:36:19;18.50;16.50;12.50
34176;PMS7003;20450;49.074;9.158;2024-03-06T05:39:06;18.50;17.00;13.50
34176;PMS7003;20450;49.074;9.158;2024-03-06T05:41:51;19.25;16.25;12.50
34176;PMS7003;20450;49.074;9.158;2024-03-06T05:44:36;19.50;18.00;14.25
34176;PMS7003;20450;49.074;9.158;2024-03-06T05:47:21;20.25;18.00;15.00
34176;PMS7003;20450;49.074;9.158;2024-03-06T05:50:06;18.50;17.25;13.75
34176;PMS7003;20450;49.074;9.158;2024-03-06T05:52:51;21.50;20.50;15.25
34176;PMS7003;20450;49.074;9.158;2024-03-06T05:55:37;22.75;18.50;14.00
34176;PMS7003;20450;49.074;9.158;2024-03-06T05:58:22;22.25;20.75;17.00
34176;PMS7003;20450;49.074;9.158;2024-03-06T06:00:49;22.00;21.25;17.75
34176;PMS7003;20450;49.074;9.158;2024-03-06T06:03:16;15.25;13.00;9.00
34176;PMS7003;20450;49.074;9.158;2024-03-06T06:05:46;15.75;15.75;12.00
34176;PMS7003;20450;49.074;9.158;2024-03-06T06:08:13;21.00;20.75;16.75
34176;PMS7003;20450;49.074;9.158;2024-03-06T06:10:41;23.75;23.25;17.25
34176;PMS7003;20450;49.074;9.158;2024-03-06T06:13:08;21.75;21.75;18.75
34176;PMS7003;20450;49.074;9.158;2024-03-06T06:15:35;16.25;16.00;11.50
34176;PMS7003;20450;49.074;9.158;2024-03-06T06:18:02;15.25;13.50;9.25
34176;PMS7003;20450;49.074;9.158;2024-03-06T06:20:29;23.00;20.25;15.00
34176;PMS7003;20450;49.074;9.158;2024-03-06T06:22:57;24.75;21.50;17.50
34176;PMS7003;20450;49.074;9.158;2024-03-06T06:25:24;15.00;15.00;10.00
34176;PMS7003;20450;49.074;9.158;2024-03-06T06:27:53;25.25;23.25;19.25
34176;PMS7003;20450;49.074;9.158;2024-03-06T06:30:20;25.75;25.75;19.50
34176;PMS7003;20450;49.074;9.158;2024-03-06T06:32:47;28.25;25.50;21.00
34176;PMS7003;20450;49.074;9.158;2024-03-06T06:35:14;34.00;31.00;20.75
34176;PMS7003;20450;49.074;9.158;2024-03-06T06:37:41;33.00;31.25;22.00
34176;PMS7003;20450;49.074;9.158;2024-03-06T06:40:08;29.00;25.50;21.25
34176;PMS7003;20450;49.074;9.158;2024-03-06T06:42:37;20.25;19.50;15.50
34176;PMS7003;20450;49.074;9.158;2024-03-06T06:45:08;24.50;17.75;13.00
34176;PMS7003;20450;49.074;9.158;2024-03-06T06:47:35;30.00;28.50;21.00
34176;PMS7003;20450;49.074;9.158;2024-03-06T06:50:02;22.50;20.00;16.25
34176;PMS7003;20450;49.074;9.158;2024-03-06T06:52:30;19.75;19.75;16.75
34176;PMS7003;20450;49.074;9.158;2024-03-06T06:54:57;15.00;12.75;9.75
34176;PMS7003;20450;49.074;9.158;2024-03-06T06:57:24;21.25;18.75;12.75
34176;PMS7003;20450;49.074;9.158;2024-03-06T06:59:51;25.00;19.00;14.50
34176;PMS7003;20450;49.074;9.158;2024-03-06T07:02:20;26.75;26.75;20.00
34176;PMS7003;20450;49.074;9.158;2024-03-06T07:04:48;18.50;18.25;15.00
34176;PMS7003;20450;49.074;9.158;2024-03-06T07:07:15;15.75;15.75;11.50
34176;PMS7003;20450;49.074;9.158;2024-03-06T07:09:42;20.00;16.00;12.00
34176;PMS7003;20450;49.074;9.158;2024-03-06T07:12:09;26.50;21.50;16.25
34176;PMS7003;20450;49.074;9.158;2024-03-06T07:14:36;23.50;22.50;14.50
34176;PMS7003;20450;49.074;9.158;2024-03-06T07:17:03;17.50;15.25;11.00
34176;PMS7003;20450;49.074;9.158;2024-03-06T07:19:32;23.50;19.50;13.50
34176;PMS7003;20450;49.074;9.158;2024-03-06T07:21:59;18.75;17.50;12.00
34176;PMS7003;20450;49.074;9.158;2024-03-06T07:24:27;25.50;22.50;18.00
34176;PMS7003;20450;49.074;9.158;2024-03-06T07:26:54;19.00;18.00;13.50
34176;PMS7003;20450;49.074;9.158;2024-03-06T07:29:21;18.00;18.00;12.00
34176;PMS7003;20450;49.074;9.158;2024-03-06T07:31:48;16.00;14.50;10.50
34176;PMS7003;20450;49.074;9.158;2024-03-06T07:34:15;23.75;18.75;13.00
34176;PMS7003;20450;49.074;9.158;2024-03-06T07:36:43;16.25;15.50;12.00
34176;PMS7003;20450;49.074;9.158;2024-03-06T07:39:10;18.75;15.50;12.00
34176;PMS7003;20450;49.074;9.158;2024-03-06T07:41:37;14.50;12.25;10.00
34176;PMS7003;20450;49.074;9.158;2024-03-06T07:44:04;22.75;21.25;13.50
34176;PMS7003;20450;49.074;9.158;2024-03-06T07:46:32;16.00;16.00;10.00
34176;PMS7003;20450;49.074;9.158;2024-03-06T07:48:59;12.75;12.75;9.00
34176;PMS7003;20450;49.074;9.158;2024-03-06T07:51:26;18.50;18.50;14.00
34176;PMS7003;20450;49.074;9.158;2024-03-06T07:53:55;17.75;15.25;9.00
34176;PMS7003;20450;49.074;9.158;2024-03-06T07:56:22;13.25;12.25;10.50
34176;PMS7003;20450;49.074;9.158;2024-03-06T07:58:50;16.75;15.25;11.50
34176;PMS7003;20450;49.074;9.158;2024-03-06T08:01:18;18.00;18.00;12.75
34176;PMS7003;20450;49.074;9.158;2024-03-06T08:03:45;23.00;17.00;12.25
34176;PMS7003;20450;49.074;9.158;2024-03-06T08:06:12;17.50;17.50;10.50
34176;PMS7003;20450;49.074;9.158;2024-03-06T08:08:39;19.00;16.50;12.25
34176;PMS7003;20450;49.074;9.158;2024-03-06T08:11:10;14.00;13.50;12.00
34176;PMS7003;20450;49.074;9.158;2024-03-06T08:13:37;15.50;15.00;11.00
34176;PMS7003;20450;49.074;9.158;2024-03-06T08:16:06;15.75;12.75;9.25
34176;PMS7003;20450;49.074;9.158;2024-03-06T08:18:36;13.50;11.50;9.75
34176;PMS7003;20450;49.074;9.158;2024-03-06T08:21:03;18.75;18.75;13.00
34176;PMS7003;20450;49.074;9.158;2024-03-06T08:23:31;18.75;15.75;12.25
34176;PMS7003;20450;49.074;9.158;2024-03-06T08:25:58;20.50;18.00;12.00
34176;PMS7003;20450;49.074;9.158;2024-03-06T08:28:27;13.75;9.75;7.50
34176;PMS7003;20450;49.074;9.158;2024-03-06T08:30:53;18.25;16.00;13.00
34176;PMS7003;20450;49.074;9.158;2024-03-06T08:33:20;17.50;16.50;9.25
34176;PMS7003;20450;49.074;9.158;2024-03-06T08:35:48;20.50;16.75;11.50
34176;PMS7003;20450;49.074;9.158;2024-03-06T08:38:15;14.00;14.00;9.50
34176;PMS7003;20450;49.074;9.158;2024-03-06T08:40:42;9.75;9.75;9.00
34176;PMS7003;20450;49.074;9.158;2024-03-06T08:43:11;9.50;9.50;6.75
34176;PMS7003;20450;49.074;9.158;2024-03-06T08:45:40;9.00;9.00;6.50
34176;PMS7003;20450;49.074;9.158;2024-03-06T08:48:07;12.00;9.75;6.00
34176;PMS7003;20450;49.074;9.158;2024-03-06T08:50:35;8.50;8.50;4.00
34176;PMS7003;20450;49.074;9.158;2024-03-06T08:53:02;12.25;7.00;5.00
34176;PMS7003;20450;49.074;9.158;2024-03-06T08:55:30;13.00;9.00;7.00
34176;PMS7003;20450;49.074;9.158;2024-03-06T08:58:00;10.00;10.00;7.00
34176;PMS7003;20450;49.074;9.158;2024-03-06T09:00:27;9.50;9.50;8.00
34176;PMS7003;20450;49.074;9.158;2024-03-06T09:02:55;8.00;8.00;6.00
34176;PMS7003;20450;49.074;9.158;2024-03-06T09:05:22;10.00;10.00;9.00
34176;PMS7003;20450;49.074;9.158;2024-03-06T09:07:49;9.25;9.00;6.00
34176;PMS7003;20450;49.074;9.158;2024-03-06T09:10:17;12.00;10.00;8.00
34176;PMS7003;20450;49.074;9.158;2024-03-06T09:12:44;9.00;9.00;6.75
34176;PMS7003;20450;49.074;9.158;2024-03-06T09:15:11;15.00;10.50;7.50
34176;PMS7003;20450;49.074;9.158;2024-03-06T09:17:39;16.25;9.50;6.75
34176;PMS7003;20450;49.074;9.158;2024-03-06T09:20:08;12.75;12.75;8.00
34176;PMS7003;20450;49.074;9.158;2024-03-06T09:22:36;8.50;8.50;6.75
34176;PMS7003;20450;49.074;9.158;2024-03-06T09:25:04;12.50;12.50;9.25
34176;PMS7003;20450;49.074;9.158;2024-03-06T09:27:33;11.50;11.00;7.00
34176;PMS7003;20450;49.074;9.158;2024-03-06T09:30:01;11.50;9.75;8.00
34176;PMS7003;20450;49.074;9.158;2024-03-06T09:32:29;12.25;9.50;5.50
34176;PMS7003;20450;49.074;9.158;2024-03-06T09:34:58;11.25;10.00;9.00
34176;PMS7003;20450;49.074;9.158;2024-03-06T09:37:27;15.50;13.50;10.00
34176;PMS7003;20450;49.074;9.158;2024-03-06T09:39:55;14.25;10.50;7.00
34176;PMS7003;20450;49.074;9.158;2024-03-06T09:42:22;16.00;15.00;11.00
34176;PMS7003;20450;49.074;9.158;2024-03-06T09:44:49;13.50;12.00;9.00
34176;PMS7003;20450;49.074;9.158;2024-03-06T09:47:19;18.25;15.00;10.50
34176;PMS7003;20450;49.074;9.158;2024-03-06T09:49:49;12.75;10.50;7.50
34176;PMS7003;20450;49.074;9.158;2024-03-06T09:52:18;18.50;18.00;13.50
34176;PMS7003;20450;49.074;9.158;2024-03-06T09:54:47;12.25;9.00;7.00
34176;PMS7003;20450;49.074;9.158;2024-03-06T09:57:17;19.00;15.25;10.00
34176;PMS7003;20450;49.074;9.158;2024-03-06T09:59:44;17.25;11.00;7.50
34176;PMS7003;20450;49.074;9.158;2024-03-06T10:02:16;18.00;12.75;9.00
34176;PMS7003;20450;49.074;9.158;2024-03-06T10:04:57;10.00;10.00;7.00
34176;PMS7003;20450;49.074;9.158;2024-03-06T10:07:24;9.25;9.25;6.75
34176;PMS7003;20450;49.074;9.158;2024-03-06T10:09:53;14.00;14.00;9.00
34176;PMS7003;20450;49.074;9.158;2024-03-06T10:12:21;14.00;12.75;9.25
34176;PMS7003;20450;49.074;9.158;2024-03-06T10:14:50;13.75;13.75;9.00
34176;PMS7003;20450;49.074;9.158;2024-03-06T10:17:19;11.25;9.00;4.00
34176;PMS7003;20450;49.074;9.158;2024-03-06T10:19:47;17.25;16.00;10.00
34176;PMS7003;20450;49.074;9.158;2024-03-06T10:22:14;18.00;14.25;10.00
34176;PMS7003;20450;49.074;9.158;2024-03-06T10:24:42;21.25;21.25;15.00
34176;PMS7003;20450;49.074;9.158;2024-03-06T10:27:14;16.75;15.50;12.00
34176;PMS7003;20450;49.074;9.158;2024-03-06T10:29:44;23.00;18.50;11.00
34176;PMS7003;20450;49.074;9.158;2024-03-06T10:32:15;18.75;15.50;12.00
34176;PMS7003;20450;49.074;9.158;2024-03-06T10:34:45;15.75;14.00;9.75
34176;PMS7003;20450;49.074;9.158;2024-03-06T10:37:12;15.50;15.25;9.00
34176;PMS7003;20450;49.074;9.158;2024-03-06T10:39:41;18.00;16.00;12.50
34176;PMS7003;20450;49.074;9.158;2024-03-06T10:42:12;14.50;13.00;9.00
34176;PMS7003;20450;49.074;9.158;2024-03-06T10:44:41;18.00;14.00;10.00
34176;PMS7003;20450;49.074;9.158;2024-03-06T10:47:19;19.25;14.50;9.50
34176;PMS7003;20450;49.074;9.158;2024-03-06T10:49:49;18.50;15.75;9.50
34176;PMS7003;20450;49.074;9.158;2024-03-06T10:52:18;16.75;14.25;9.25
34176;PMS7003;20450;49.074;9.158;2024-03-06T10:54:46;18.75;15.75;12.50
34176;PMS7003;20450;49.074;9.158;2024-03-06T10:57:16;27.25;20.00;14.00
34176;PMS7003;20450;49.074;9.158;2024-03-06T10:59:45;16.50;15.00;9.75
34176;PMS7003;20450;49.074;9.158;2024-03-06T11:02:13;16.75;14.50;12.75
34176;PMS7003;20450;49.074;9.158;2024-03-06T11:04:42;17.00;13.00;9.00
34176;PMS7003;20450;49.074;9.158;2024-03-06T11:07:09;11.00;9.75;5.00
34176;PMS7003;20450;49.074;9.158;2024-03-06T11:09:41;17.00;15.25;9.75
34176;PMS7003;20450;49.074;9.158;2024-03-06T11:12:08;10.25;8.00;6.25
34176;PMS7003;20450;49.074;9.158;2024-03-06T11:14:38;15.25;15.25;11.50
34176;PMS7003;20450;49.074;9.158;2024-03-06T11:17:08;21.50;18.25;13.00
34176;PMS7003;20450;49.074;9.158;2024-03-06T11:23:04;23.00;21.50;15.75
34176;PMS7003;20450;49.074;9.158;2024-03-06T11:28:30;13.75;10.75;7.50
34176;PMS7003;20450;49.074;9.158;2024-03-06T11:31:01;15.25;15.25;10.50
34176;PMS7003;20450;49.074;9.158;2024-03-06T11:33:35;18.50;14.50;10.00
34176;PMS7003;20450;49.074;9.158;2024-03-06T11:36:17;18.50;13.00;10.00
34176;PMS7003;20450;49.074;9.158;2024-03-06T11:38:47;17.00;15.50;10.00
34176;PMS7003;20450;49.074;9.158;2024-03-06T11:41:18;20.00;15.50;12.00
34176;PMS7003;20450;49.074;9.158;2024-03-06T11:43:48;17.25;15.25;12.00
34176;PMS7003;20450;49.074;9.158;2024-03-06T11:46:17;17.50;15.00;11.00
34176;PMS7003;20450;49.074;9.158;2024-03-06T11:48:50;15.00;13.00;10.00
34176;PMS7003;20450;49.074;9.158;2024-03-06T11:51:19;17.50;17.50;13.00
34176;PMS7003;20450;49.074;9.158;2024-03-06T11:53:48;22.00;21.00;12.00
34176;PMS7003;20450;49.074;9.158;2024-03-06T11:56:17;13.00;13.00;8.00
34176;PMS7003;20450;49.074;9.158;2024-03-06T11:58:45;10.00;10.00;4.00
34176;PMS7003;20450;49.074;9.158;2024-03-06T12:01:15;22.25;16.75;11.00
34176;PMS7003;20450;49.074;9.158;2024-03-06T12:03:44;19.50;17.00;12.50
34176;PMS7003;20450;49.074;9.158;2024-03-06T12:06:13;20.50;18.00;9.25
34176;PMS7003;20450;49.074;9.158;2024-03-06T12:08:41;15.75;15.00;12.00
34176;PMS7003;20450;49.074;9.158;2024-03-06T12:11:08;18.00;16.00;10.00
34176;PMS7003;20450;49.074;9.158;2024-03-06T12:13:35;16.25;14.00;7.00
34176;PMS7003;20450;49.074;9.158;2024-03-06T12:16:05;20.00;17.75;10.00
34176;PMS7003;20450;49.074;9.158;2024-03-06T12:18:34;26.50;20.25;12.25
34176;PMS7003;20450;49.074;9.158;2024-03-06T12:21:02;14.75;13.00;9.25
34176;PMS7003;20450;49.074;9.158;2024-03-06T12:23:31;19.00;16.75;11.00
34176;PMS7003;20450;49.074;9.158;2024-03-06T12:26:05;22.50;21.00;13.50
34176;PMS7003;20450;49.074;9.158;2024-03-06T12:28:34;27.00;20.50;15.25
34176;PMS7003;20450;49.074;9.158;2024-03-06T12:31:02;19.00;17.00;10.50
34176;PMS7003;20450;49.074;9.158;2024-03-06T12:33:30;24.00;19.25;14.00
34176;PMS7003;20450;49.074;9.158;2024-03-06T12:36:03;20.50;17.00;12.50
34176;PMS7003;20450;49.074;9.158;2024-03-06T12:38:32;22.50;20.50;12.00
34176;PMS7003;20450;49.074;9.158;2024-03-06T12:40:59;20.50;18.75;13.50
34176;PMS7003;20450;49.074;9.158;2024-03-06T12:43:27;26.00;24.75;15.00
34176;PMS7003;20450;49.074;9.158;2024-03-06T12:45:53;24.75;14.50;8.00
34176;PMS7003;20450;49.074;9.158;2024-03-06T12:48:21;28.50;22.50;15.25
34176;PMS7003;20450;49.074;9.158;2024-03-06T12:50:49;21.50;21.00;13.00
34176;PMS7003;20450;49.074;9.158;2024-03-06T12:53:17;23.75;21.00;14.00
34176;PMS7003;20450;49.074;9.158;2024-03-06T12:55:45;25.75;17.50;12.00
34176;PMS7003;20450;49.074;9.158;2024-03-06T12:58:12;22.00;21.50;13.00
34176;PMS7003;20450;49.074;9.158;2024-03-06T13:00:40;20.00;15.50;9.50
34176;PMS7003;20450;49.074;9.158;2024-03-06T13:03:08;25.00;24.75;13.00
34176;PMS7003;20450;49.074;9.158;2024-03-06T13:05:35;22.25;19.50;13.00
34176;PMS7003;20450;49.074;9.158;2024-03-06T13:08:02;24.25;24.25;16.00
34176;PMS7003;20450;49.074;9.158;2024-03-06T13:10:39;27.50;26.00;15.00
34176;PMS7003;20450;49.074;9.158;2024-03-06T13:13:06;21.25;20.25;12.75
34176;PMS7003;20450;49.074;9.158;2024-03-06T13:15:33;29.75;24.50;17.00
34176;PMS7003;20450;49.074;9.158;2024-03-06T13:18:00;26.75;23.25;16.25
34176;PMS7003;20450;49.074;9.158;2024-03-06T13:20:28;20.00;15.50;11.00
34176;PMS7003;20450;49.074;9.158;2024-03-06T13:22:55;21.75;20.50;13.50
34176;PMS7003;20450;49.074;9.158;2024-03-06T13:25:22;30.25;19.75;14.00
34176;PMS7003;20450;49.074;9.158;2024-03-06T13:27:50;19.00;16.50;12.25
34176;PMS7003;20450;49.074;9.158;2024-03-06T13:30:18;21.00;19.75;12.75
34176;PMS7003;20450;49.074;9.158;2024-03-06T13:32:46;22.75;22.75;15.50
34176;PMS7003;20450;49.074;9.158;2024-03-06T13:35:14;18.75;18.75;11.50
34176;PMS7003;20450;49.074;9.158;2024-03-06T13:37:41;25.00;19.50;13.50
34176;PMS7003;20450;49.074;9.158;2024-03-06T13:40:09;22.50;20.50;14.00
34176;PMS7003;20450;49.074;9.158;2024-03-06T13:42:37;32.00;27.00;20.00
34176;PMS7003;20450;49.074;9.158;2024-03-06T13:45:07;27.75;22.75;16.75
34176;PMS7003;20450;49.074;9.158;2024-03-06T13:47:36;22.75;20.75;13.00
34176;PMS7003;20450;49.074;9.158;2024-03-06T13:50:03;23.00;18.00;12.25
34176;PMS7003;20450;49.074;9.158;2024-03-06T13:52:30;19.50;17.00;10.00
34176;PMS7003;20450;49.074;9.158;2024-03-06T13:54:57;21.25;19.50;14.00
34176;PMS7003;20450;49.074;9.158;2024-03-06T13:57:24;5.25;2.25;0.00
34176;PMS7003;20450;49.074;9.158;2024-03-06T13:59:51;28.75;24.00;16.75
34176;PMS7003;20450;49.074;9.158;2024-03-06T14:02:20;29.50;26.25;15.75
34176;PMS7003;20450;49.074;9.158;2024-03-06T14:04:47;35.25;31.75;21.00
34176;PMS7003;20450;49.074;9.158;2024-03-06T14:07:14;25.25;23.75;14.00
34176;PMS7003;20450;49.074;9.158;2024-03-06T14:09:41;24.50;20.75;15.00